^^

Weather Underground History

Daily Summary for January 10, 2019 Units:  Metric    English   Both
Daily Weekly Monthly Yearly Custom
  High: Low: Average:
Temperature: 7.7 °C 7 °C 7.4 °C
Dew Point: 6.5 °C 5.7 °C 6.1 °C
Humidity: 93% 91% 91%
Wind Speed: 14.8km/h 6.2km/h 10.9km/h
Wind Gust: 24.1km/h - -
Wind- - West
Pressure: 1004.8 hPa 1002.7 hPa -
Precipitation: 0.0 mm    
Historical Graphs
 
 
Tabular Data for January 10, 2019
Time Temperature Dew Point Pressure Wind Wind Speed Wind Gust Humidity Rainfall Rate (Hourly) solar
00:04 7.2 °C 5.8 °C 1002.9 hPa WSW 8.4 km/h 14.5 km/h 91% 0.0 mm 0 W/m2
00:09 7.2 °C 5.8 °C 1002.9 hPa West 8.9 km/h 14.5 km/h 91% 0.0 mm 0 W/m2
00:14 7.2 °C 5.9 °C 1002.9 hPa West 8 km/h 12.9 km/h 91% 0.0 mm 0 W/m2
00:19 7.2 °C 5.8 °C 1002.8 hPa West 6.8 km/h 11.3 km/h 91% 0.0 mm 0 W/m2
00:24 7.2 °C 5.8 °C 1002.7 hPa West 7.2 km/h 11.3 km/h 91% 0.0 mm 0 W/m2
00:29 7.1 °C 5.8 °C 1002.7 hPa West 8.8 km/h 17.7 km/h 91.1% 0.0 mm 0 W/m2
00:34 7.2 °C 5.8 °C 1002.8 hPa West 6.2 km/h 12.9 km/h 91.2% 0.0 mm 0 W/m2
00:39 7.1 °C 5.9 °C 1002.9 hPa West 6.3 km/h 11.3 km/h 91.8% 0.0 mm 0 W/m2
00:44 7.1 °C 5.8 °C 1002.9 hPa West 9.9 km/h 16.1 km/h 91.6% 0.0 mm 0 W/m2
00:49 7.1 °C 5.9 °C 1002.9 hPa West 10.1 km/h 16.1 km/h 92% 0.0 mm 0 W/m2
00:54 7.2 °C 6 °C 1003.0 hPa WSW 8.8 km/h 14.5 km/h 92% 0.0 mm 0 W/m2
00:59 7.2 °C 6 °C 1003.0 hPa West 10.1 km/h 14.5 km/h 92% 0.0 mm 0 W/m2
01:04 7.2 °C 5.9 °C 1003.0 hPa West 11.5 km/h 16.1 km/h 92% 0.0 mm 0 W/m2
01:09 7.2 °C 6 °C 1003.0 hPa West 10.7 km/h 19.3 km/h 92% 0.0 mm 0 W/m2
01:14 7.3 °C 6 °C 1003.0 hPa WSW 10.3 km/h 17.7 km/h 92% 0.0 mm 0 W/m2
01:19 7.3 °C 6.1 °C 1003.0 hPa WSW 9.9 km/h 16.1 km/h 92% 0.0 mm 0 W/m2
01:21 7.3 °C 6.1 °C 1003.0 hPa West 9.1 km/h 14.5 km/h 92% 0.0 mm 0 W/m2
01:44 7.3 °C 6.1 °C 1003.0 hPa West 8.2 km/h 14.5 km/h 92% 0.0 mm 0 W/m2
01:49 7.3 °C 6.1 °C 1003.0 hPa West 7.3 km/h 12.9 km/h 92% 0.0 mm 0 W/m2
01:54 7.3 °C 6.1 °C 1003.0 hPa WSW 9.5 km/h 17.7 km/h 92% 0.0 mm 0 W/m2
01:59 7.4 °C 6.2 °C 1003.0 hPa West 13.1 km/h 22.5 km/h 92% 0.0 mm 0 W/m2
02:04 7.5 °C 6.3 °C 1003.1 hPa West 12 km/h 22.5 km/h 92% 0.0 mm 0 W/m2
02:09 7.6 °C 6.4 °C 1003.1 hPa West 13 km/h 22.5 km/h 92% 0.0 mm 0 W/m2
02:14 7.6 °C 6.4 °C 1003.1 hPa West 14.5 km/h 24.1 km/h 92% 0.0 mm 0 W/m2
02:19 7.7 °C 6.5 °C 1003.1 hPa West 14.1 km/h 24.1 km/h 92% 0.0 mm 0 W/m2
02:24 7.7 °C 6.3 °C 1003.1 hPa West 12 km/h 20.9 km/h 91.1% 0.0 mm 0 W/m2
02:29 7.7 °C 6.3 °C 1003.1 hPa West 10.9 km/h 20.9 km/h 91% 0.0 mm 0 W/m2
02:34 7.7 °C 6.3 °C 1003.2 hPa West 14.3 km/h 24.1 km/h 91% 0.0 mm 0 W/m2
02:39 7.7 °C 6.3 °C 1003.3 hPa West 13.5 km/h 24.1 km/h 91% 0.0 mm 0 W/m2
02:44 7.7 °C 6.3 °C 1003.3 hPa West 13.4 km/h 24.1 km/h 91% 0.0 mm 0 W/m2
02:49 7.7 °C 6.3 °C 1003.4 hPa West 14.2 km/h 20.9 km/h 91% 0.0 mm 0 W/m2
02:54 7.6 °C 6.2 °C 1003.4 hPa West 13.1 km/h 20.9 km/h 91% 0.0 mm 0 W/m2
02:59 7.6 °C 6.2 °C 1003.5 hPa West 12.9 km/h 20.9 km/h 91% 0.0 mm 0 W/m2
03:04 7.6 °C 6.2 °C 1003.5 hPa West 13.4 km/h 24.1 km/h 91% 0.0 mm 0 W/m2
03:09 7.6 °C 6.2 °C 1003.5 hPa West 12.9 km/h 24.1 km/h 91% 0.0 mm 0 W/m2
03:14 7.6 °C 6.2 °C 1003.5 hPa West 11.5 km/h 20.9 km/h 91% 0.0 mm 0 W/m2
03:19 7.5 °C 6.1 °C 1003.6 hPa West 13.1 km/h 20.9 km/h 91% 0.0 mm 0 W/m2
03:24 7.6 °C 6.2 °C 1003.7 hPa West 12.8 km/h 19.3 km/h 91% 0.0 mm 0 W/m2
03:29 7.6 °C 6.2 °C 1003.8 hPa West 13 km/h 19.3 km/h 91% 0.0 mm 0 W/m2
03:34 7.7 °C 6.3 °C 1003.8 hPa West 14.8 km/h 22.5 km/h 91% 0.0 mm 0 W/m2
03:39 7.7 °C 6.3 °C 1003.8 hPa West 11.2 km/h 22.5 km/h 91% 0.0 mm 0 W/m2
03:44 7.6 °C 6.2 °C 1004.0 hPa West 10.5 km/h 19.3 km/h 91% 0.0 mm 0 W/m2
03:49 7.6 °C 6.2 °C 1004.0 hPa West 12 km/h 22.5 km/h 91% 0.0 mm 0 W/m2
03:54 7.5 °C 6.2 °C 1004.0 hPa West 11.9 km/h 20.9 km/h 91% 0.0 mm 0 W/m2
03:59 7.6 °C 6.2 °C 1004.1 hPa West 12.6 km/h 19.3 km/h 91% 0.0 mm 0 W/m2
04:04 7.6 °C 6.2 °C 1004.1 hPa West 11.9 km/h 19.3 km/h 91% 0.0 mm 0 W/m2
04:09 7.5 °C 6.2 °C 1004.2 hPa West 11.1 km/h 19.3 km/h 91% 0.0 mm 0 W/m2
04:14 7.5 °C 6.1 °C 1004.2 hPa West 9.5 km/h 16.1 km/h 91% 0.0 mm 0 W/m2
04:19 7.4 °C 6 °C 1004.1 hPa WSW 11.3 km/h 17.7 km/h 91% 0.0 mm 0 W/m2
04:24 7.3 °C 6 °C 1004.2 hPa West 9.7 km/h 17.7 km/h 91% 0.0 mm 0 W/m2
04:29 7.3 °C 5.9 °C 1004.1 hPa West 10 km/h 16.1 km/h 91% 0.0 mm 0 W/m2
04:34 7.2 °C 5.8 °C 1004.2 hPa WSW 10.5 km/h 16.1 km/h 91% 0.0 mm 0 W/m2
04:39 7.1 °C 5.8 °C 1004.2 hPa WSW 10.8 km/h 16.1 km/h 91.3% 0.0 mm 0 W/m2
04:44 7.1 °C 5.7 °C 1004.3 hPa West 11.2 km/h 17.7 km/h 91.3% 0.0 mm 0 W/m2
04:49 7.1 °C 5.8 °C 1004.4 hPa WSW 11.1 km/h 17.7 km/h 92% 0.0 mm 0 W/m2
04:52 7 °C 5.8 °C 1004.5 hPa West 10.8 km/h 17.7 km/h 92% 0.0 mm 0 W/m2
04:59 7 °C 5.8 °C 1004.7 hPa West 10.3 km/h 17.7 km/h 92% 0.0 mm 0 W/m2
05:04 7 °C 5.8 °C 1004.7 hPa West 10.6 km/h 16.1 km/h 92% 0.0 mm 0 W/m2
05:09 7.1 °C 5.8 °C 1004.7 hPa West 9.3 km/h 16.1 km/h 92% 0.0 mm 0 W/m2
05:14 7.1 °C 5.9 °C 1004.8 hPa West 10.7 km/h 16.1 km/h 92% 0.0 mm 0 W/m2
05:19 7.1 °C 6 °C 1004.8 hPa West 10.9 km/h 16.1 km/h 92.4% 0.0 mm 0 W/m2
05:24 7.2 °C 6.2 °C 1004.8 hPa West 9.5 km/h 16.1 km/h 93% 0.0 mm 0 W/m2
Compliments of Weather Underground - 2.75 mb